Time;durP1;ratioP1;P1;durP2;ratioP2;P2;SDS_P1;SDS_P2;PMS_P1;PMS_P2;Temp;Humidity;BMP_temperature;BMP_pressure;BME280_temperature;BME280_humidity;BME280_pressure;Samples;Min_cycle;Max_cycle;Signal;HPM_P1;HPM_P2
2023/07/27 00:01:50;;;;;;;4.22;2.38;;;;;;;17.84;86.56;100895.19;4971626;28;20054;-70
2023/07/27 00:04:18;;;;;;;5.32;2.67;;;;;;;17.89;85.10;100897.25;4999912;28;20038;-70
2023/07/27 00:06:46;;;;;;;5.43;2.65;;;;;;;17.85;79.32;100891.53;5007961;28;20046;-70
2023/07/27 00:09:13;;;;;;;5.03;2.65;;;;;;;17.82;78.97;100888.41;5012337;28;20531;-70
2023/07/27 00:11:39;;;;;;;6.45;2.47;;;;;;;17.82;80.15;100880.44;5011723;28;20058;-71
2023/07/27 00:14:06;;;;;;;5.40;2.60;;;;;;;17.87;79.29;100886.03;4985183;28;20481;-71
2023/07/27 00:16:32;;;;;;;6.15;2.80;;;;;;;17.87;78.57;100888.69;4987635;28;20046;-71
2023/07/27 00:18:59;;;;;;;5.43;2.67;;;;;;;17.92;79.51;100886.28;4993190;28;20060;-71
2023/07/27 00:21:26;;;;;;;6.72;3.10;;;;;;;17.85;79.10;100880.09;4993831;28;20073;-71
2023/07/27 00:23:52;;;;;;;5.18;3.05;;;;;;;17.91;79.24;100887.28;4987536;28;20038;-71
2023/07/27 00:26:19;;;;;;;10.00;3.28;;;;;;;17.94;78.88;100873.63;4988055;28;20109;-71
2023/07/27 00:28:45;;;;;;;6.82;2.97;;;;;;;17.97;78.74;100878.53;4981140;28;20148;-71
2023/07/27 00:31:12;;;;;;;6.38;3.38;;;;;;;17.95;78.57;100873.44;4990820;28;20054;-71
2023/07/27 00:33:38;;;;;;;4.53;3.00;;;;;;;17.89;79.56;100871.53;4967898;28;20089;-71
2023/07/27 00:36:05;;;;;;;7.57;3.03;;;;;;;17.90;79.45;100877.69;4990711;28;20117;-71
2023/07/27 00:38:32;;;;;;;5.90;3.17;;;;;;;17.93;80.35;100880.75;4989962;28;20149;-71
2023/07/27 00:40:59;;;;;;;5.00;3.15;;;;;;;17.94;82.40;100877.09;4979648;28;20164;-71
2023/07/27 00:43:26;;;;;;;5.43;3.33;;;;;;;17.88;81.52;100875.22;4983736;28;20050;-71
2023/07/27 00:45:53;;;;;;;6.75;3.25;;;;;;;17.83;82.29;100874.94;4983416;28;20495;-72
2023/07/27 00:48:20;;;;;;;8.35;3.85;;;;;;;17.71;83.38;100879.13;4989432;28;20062;-71
2023/07/27 00:50:47;;;;;;;10.05;4.68;;;;;;;17.65;85.98;100882.56;4982791;28;20109;-71
2023/07/27 00:53:15;;;;;;;8.23;4.30;;;;;;;17.68;92.19;100876.84;4990264;28;20043;-71
2023/07/27 00:55:43;;;;;;;13.18;5.03;;;;;;;17.54;94.56;100878.59;4984263;28;20050;-71
2023/07/27 00:58:11;;;;;;;8.93;5.10;;;;;;;17.45;98.85;100877.91;4969220;28;20054;-71
2023/07/27 01:00:40;;;;;;;;;;;;;;;17.43;100.00;100871.16;4990847;28;20050;-71
2023/07/27 01:03:06;;;;;;;8.00;4.63;;;;;;;17.43;100.00;100876.47;4966624;28;19926;-71
2023/07/27 01:05:33;;;;;;;9.07;4.82;;;;;;;17.32;100.00;100875.94;4990325;28;20053;-71
2023/07/27 01:07:59;;;;;;;7.88;5.05;;;;;;;17.27;100.00;100859.78;4991445;28;20536;-71
2023/07/27 01:10:49;;;;;;;8.15;4.53;;;;;;;17.26;100.00;100859.97;4993418;28;20058;-71
2023/07/27 01:13:40;;;;;;;8.38;5.55;;;;;;;17.19;100.00;100867.88;4964622;28;20078;-71
2023/07/27 01:16:21;;;;;;;8.85;5.25;;;;;;;17.06;100.00;100862.44;4983737;28;20050;-71
2023/07/27 01:19:04;;;;;;;9.23;4.95;;;;;;;17.03;100.00;100853.00;4967610;28;20042;-70
2023/07/27 01:21:39;;;;;;;9.73;4.93;;;;;;;16.99;100.00;100857.03;4988616;28;20078;-71
2023/07/27 01:24:42;;;;;;;9.40;5.15;;;;;;;16.91;100.00;100854.53;4981845;28;20062;-71
2023/07/27 01:27:28;;;;;;;9.30;5.05;;;;;;;16.84;100.00;100854.47;4982499;28;20216;-71
2023/07/27 01:30:13;;;;;;;10.05;5.53;;;;;;;16.65;100.00;100847.88;4989755;28;20551;-71
2023/07/27 01:32:41;;;;;;;13.40;6.07;;;;;;;16.56;100.00;100849.84;4966503;28;20058;-71
2023/07/27 01:35:12;;;;;;;9.75;6.18;;;;;;;16.50;100.00;100847.91;4971751;28;20345;-71
2023/07/27 01:37:43;;;;;;;12.40;6.28;;;;;;;16.44;100.00;100842.53;4978295;28;20050;-72
2023/07/27 01:40:13;;;;;;;9.90;5.95;;;;;;;16.35;100.00;100831.22;4988211;28;20112;-72
2023/07/27 01:42:41;;;;;;;9.20;6.03;;;;;;;16.35;100.00;100833.88;4965819;28;20050;-72
2023/07/27 01:45:10;;;;;;;8.25;6.15;;;;;;;16.34;100.00;100832.22;4994299;28;20054;-73
2023/07/27 01:47:41;;;;;;;10.23;6.72;;;;;;;16.37;100.00;100830.03;4982438;28;20089;-72
2023/07/27 01:50:09;;;;;;;10.40;6.13;;;;;;;16.30;100.00;100823.81;4984351;28;20054;-72
2023/07/27 01:52:36;;;;;;;9.65;6.55;;;;;;;16.32;100.00;100815.69;4985351;28;20146;-71
2023/07/27 01:55:05;;;;;;;9.65;6.22;;;;;;;16.19;100.00;100811.88;4982124;28;20054;-71
2023/07/27 01:57:32;;;;;;;10.38;6.13;;;;;;;16.22;100.00;100813.34;4989036;28;20069;-71
2023/07/27 01:59:59;;;;;;;8.95;6.03;;;;;;;16.15;100.00;100815.06;4966754;28;20431;-71
2023/07/27 02:02:26;;;;;;;9.35;5.82;;;;;;;16.14;100.00;100808.16;4971568;28;20070;-71
2023/07/27 02:04:56;;;;;;;11.10;5.68;;;;;;;16.14;100.00;100802.84;4983204;28;20601;-71
2023/07/27 02:07:22;;;;;;;9.48;6.25;;;;;;;16.15;100.00;100800.03;4982188;28;20519;-71
2023/07/27 02:09:49;;;;;;;10.73;6.65;;;;;;;16.19;100.00;100801.31;4966315;28;20105;-73
2023/07/27 02:12:23;;;;;;;10.48;6.32;;;;;;;16.30;100.00;100799.19;4980160;28;20077;-69
2023/07/27 02:14:58;;;;;;;11.63;6.43;;;;;;;16.32;100.00;100781.28;4987414;28;20054;-71
2023/07/27 02:17:34;;;;;;;10.93;6.55;;;;;;;16.37;100.00;100786.88;4982980;28;20057;-71
2023/07/27 02:20:06;;;;;;;10.82;6.72;;;;;;;16.45;100.00;100780.66;4982425;28;20246;-71
2023/07/27 02:22:34;;;;;;;13.15;7.57;;;;;;;16.39;100.00;100779.56;4969457;28;20538;-71
2023/07/27 02:25:00;;;;;;;12.38;7.35;;;;;;;16.44;100.00;100771.88;4988881;28;20152;-71
2023/07/27 02:27:27;;;;;;;13.45;7.82;;;;;;;16.43;100.00;100764.94;4989535;28;20411;-72
2023/07/27 02:29:53;;;;;;;12.52;7.40;;;;;;;16.41;100.00;100772.25;4982459;28;20051;-71
2023/07/27 02:32:20;;;;;;;10.18;7.22;;;;;;;16.40;100.00;100762.66;4985246;28;20054;-71
2023/07/27 02:34:46;;;;;;;12.10;7.65;;;;;;;16.43;100.00;100757.00;4961369;28;20061;-71
2023/07/27 02:37:13;;;;;;;10.77;7.70;;;;;;;16.31;100.00;100755.84;4988212;28;20447;-71
2023/07/27 02:39:39;;;;;;;10.40;8.30;;;;;;;16.26;100.00;100742.34;4985740;28;20049;-71
2023/07/27 02:42:06;;;;;;;10.93;7.72;;;;;;;16.23;100.00;100748.00;4988267;28;20051;-71
2023/07/27 02:44:32;;;;;;;11.93;7.88;;;;;;;16.28;100.00;100745.63;4986363;28;20097;-71
2023/07/27 02:46:59;;;;;;;14.52;8.45;;;;;;;16.20;100.00;100741.25;4978083;28;20050;-70
2023/07/27 02:49:25;;;;;;;12.60;7.93;;;;;;;16.17;100.00;100747.75;4983639;28;20043;-70
2023/07/27 02:51:52;;;;;;;11.52;8.05;;;;;;;16.16;100.00;100738.16;4982273;28;20046;-70
2023/07/27 02:54:18;;;;;;;11.05;7.70;;;;;;;16.17;100.00;100736.31;4988623;28;20213;-70
2023/07/27 02:56:45;;;;;;;12.55;8.07;;;;;;;16.18;100.00;100727.38;4982392;28;20100;-70
2023/07/27 02:59:12;;;;;;;10.95;7.05;;;;;;;16.20;100.00;100731.47;4981995;28;20571;-69
2023/07/27 03:01:38;;;;;;;10.30;8.35;;;;;;;16.29;100.00;100726.91;4981166;28;20054;-71
2023/07/27 03:04:05;;;;;;;13.45;8.63;;;;;;;16.32;100.00;100729.16;4979360;28;20475;-70
2023/07/27 03:06:31;;;;;;;12.15;7.95;;;;;;;16.32;100.00;100725.72;4987545;28;20121;-70
2023/07/27 03:08:58;;;;;;;13.50;7.95;;;;;;;16.30;100.00;100717.94;4974883;28;20073;-69
2023/07/27 03:11:25;;;;;;;12.85;8.30;;;;;;;16.35;100.00;100720.88;4988507;28;20042;-69
2023/07/27 03:13:52;;;;;;;12.50;8.40;;;;;;;16.36;100.00;100708.44;4961123;28;20082;-70
2023/07/27 03:16:19;;;;;;;12.50;8.30;;;;;;;16.35;100.00;100701.53;4981565;28;20529;-70
2023/07/27 03:18:46;;;;;;;10.93;8.45;;;;;;;16.37;100.00;100697.69;4988800;28;20054;-69
2023/07/27 03:21:12;;;;;;;12.98;8.40;;;;;;;16.40;100.00;100694.63;4982489;28;20057;-70
2023/07/27 03:23:38;;;;;;;11.50;8.32;;;;;;;16.44;100.00;100686.34;4988770;28;20050;-69
2023/07/27 03:26:12;;;;;;;11.05;8.02;;;;;;;16.41;100.00;100687.53;4964047;28;20109;-70
2023/07/27 03:28:38;;;;;;;14.13;9.20;;;;;;;16.39;100.00;100682.44;4984240;28;20042;-69
2023/07/27 03:31:18;;;;;;;12.10;8.38;;;;;;;16.42;100.00;100675.94;4977579;28;20056;-70
2023/07/27 03:33:45;;;;;;;10.32;7.65;;;;;;;16.44;100.00;100671.25;4988120;28;20081;-70
2023/07/27 03:36:14;;;;;;;17.52;9.13;;;;;;;16.44;100.00;100662.50;4984589;28;20943;-70
2023/07/27 03:38:40;;;;;;;12.82;8.90;;;;;;;16.44;100.00;100652.72;4977143;28;20423;-70
2023/07/27 03:41:07;;;;;;;13.25;8.73;;;;;;;16.45;100.00;100646.44;4983221;28;20242;-69
2023/07/27 03:43:33;;;;;;;13.07;9.15;;;;;;;16.46;100.00;100636.66;4975803;28;20068;-69
2023/07/27 03:46:00;;;;;;;12.15;8.07;;;;;;;16.48;100.00;100638.09;4985338;28;20128;-70
2023/07/27 03:48:27;;;;;;;14.48;9.82;;;;;;;16.43;100.00;100637.88;4982036;28;20499;-70
2023/07/27 03:50:53;;;;;;;17.38;10.52;;;;;;;16.41;100.00;100637.25;4963157;28;20070;-69
2023/07/27 03:53:20;;;;;;;15.07;10.32;;;;;;;16.40;100.00;100635.59;4972982;28;20733;-70
2023/07/27 03:55:47;;;;;;;13.52;10.18;;;;;;;16.39;100.00;100618.09;4976689;28;20484;-69
2023/07/27 03:58:13;;;;;;;13.77;10.52;;;;;;;16.40;100.00;100611.75;4983187;28;20565;-69
2023/07/27 04:00:40;;;;;;;14.30;9.98;;;;;;;16.40;100.00;100606.47;4981964;28;20062;-70
2023/07/27 04:03:07;;;;;;;14.38;9.23;;;;;;;16.43;100.00;100605.28;4987894;28;20106;-69
2023/07/27 04:05:33;;;;;;;13.05;8.05;;;;;;;16.40;100.00;100602.00;4982192;28;20050;-70
2023/07/27 04:08:00;;;;;;;11.63;8.07;;;;;;;16.38;100.00;100589.97;4987949;28;20103;-70
2023/07/27 04:10:29;;;;;;;12.27;7.72;;;;;;;16.39;100.00;100589.78;4985254;28;20047;-70
2023/07/27 04:12:57;;;;;;;13.63;8.57;;;;;;;16.31;100.00;100595.22;4977886;28;20046;-69
2023/07/27 04:15:24;;;;;;;10.18;6.72;;;;;;;16.38;100.00;100596.06;4988826;28;20042;-69
2023/07/27 04:17:51;;;;;;;10.48;7.53;;;;;;;16.29;100.00;100591.94;4984902;28;20062;-69
2023/07/27 04:20:18;;;;;;;10.35;7.00;;;;;;;16.33;100.00;100584.44;4974658;28;20058;-69
2023/07/27 04:22:44;;;;;;;9.93;6.88;;;;;;;16.33;100.00;100576.50;4967773;28;20069;-69
2023/07/27 04:25:10;;;;;;;11.32;5.68;;;;;;;16.30;100.00;100572.38;4983676;28;20129;-70
2023/07/27 04:27:37;;;;;;;9.88;7.03;;;;;;;16.26;100.00;100568.47;4989790;28;20531;-69
2023/07/27 04:30:04;;;;;;;11.52;6.40;;;;;;;16.25;100.00;100560.72;4967232;28;20054;-68
2023/07/27 04:32:31;;;;;;;11.00;6.75;;;;;;;16.26;100.00;100562.38;4992836;28;20554;-69
2023/07/27 04:34:57;;;;;;;10.10;6.50;;;;;;;16.25;100.00;100555.44;4985041;28;20172;-69
2023/07/27 04:37:24;;;;;;;10.80;6.45;;;;;;;16.25;100.00;100550.13;4986992;28;20055;-70
2023/07/27 04:39:50;;;;;;;9.45;5.47;;;;;;;16.19;100.00;100541.13;4980034;28;20061;-68
2023/07/27 04:42:17;;;;;;;10.55;6.10;;;;;;;16.24;100.00;100544.03;4990389;28;20089;-68
2023/07/27 04:44:43;;;;;;;12.05;6.75;;;;;;;16.23;100.00;100539.75;4990607;28;20057;-68
2023/07/27 04:47:10;;;;;;;10.63;5.65;;;;;;;16.23;100.00;100534.47;4982010;28;20534;-69
2023/07/27 04:49:37;;;;;;;8.48;5.85;;;;;;;16.20;100.00;100526.91;4990466;28;20081;-69
2023/07/27 04:52:03;;;;;;;8.23;5.93;;;;;;;16.22;100.00;100527.53;4979165;28;20108;-68
2023/07/27 04:54:30;;;;;;;8.63;5.97;;;;;;;16.19;100.00;100520.78;4985504;28;20069;-69
2023/07/27 04:56:56;;;;;;;9.35;6.03;;;;;;;16.19;100.00;100517.31;4982661;28;20057;-69
2023/07/27 04:59:23;;;;;;;8.82;5.47;;;;;;;16.17;100.00;100506.09;4990726;28;20088;-69
2023/07/27 05:01:49;;;;;;;11.55;5.75;;;;;;;16.13;100.00;100503.03;4990173;28;20050;-68
2023/07/27 05:04:17;;;;;;;9.63;5.93;;;;;;;16.05;100.00;100505.00;4983597;28;20047;-68
2023/07/27 05:06:44;;;;;;;10.02;5.50;;;;;;;16.12;100.00;100500.59;4973501;28;20054;-70
2023/07/27 05:09:10;;;;;;;10.95;5.95;;;;;;;16.12;100.00;100493.44;4983052;28;20315;-70
2023/07/27 05:11:38;;;;;;;13.38;5.68;;;;;;;16.17;100.00;100487.56;4993560;28;20400;-68
2023/07/27 05:14:05;;;;;;;8.40;5.88;;;;;;;16.09;100.00;100483.28;4959112;28;20550;-69
2023/07/27 05:16:31;;;;;;;10.07;5.50;;;;;;;16.04;100.00;100482.19;4989532;28;20087;-69
2023/07/27 05:18:58;;;;;;;8.23;5.47;;;;;;;15.97;100.00;100480.28;4986622;28;20161;-69
2023/07/27 05:21:25;;;;;;;9.40;5.03;;;;;;;16.01;100.00;100478.94;4983331;28;20085;-68
2023/07/27 05:23:52;;;;;;;7.93;4.82;;;;;;;16.02;100.00;100474.44;4973428;28;20049;-68
2023/07/27 05:26:18;;;;;;;8.57;5.45;;;;;;;15.96;100.00;100469.94;4983322;28;20400;-68
2023/07/27 05:28:45;;;;;;;9.10;5.22;;;;;;;15.94;100.00;100466.66;4990298;28;20150;-69
2023/07/27 05:31:11;;;;;;;7.30;4.82;;;;;;;15.89;100.00;100472.50;4977077;28;20632;-70
2023/07/27 05:33:38;;;;;;;8.60;5.10;;;;;;;15.81;100.00;100462.84;4990789;28;20054;-70
2023/07/27 05:36:05;;;;;;;7.10;4.68;;;;;;;15.88;100.00;100462.94;4989081;28;20042;-69
2023/07/27 05:38:31;;;;;;;8.23;4.60;;;;;;;15.93;100.00;100455.22;4982714;28;20069;-68
2023/07/27 05:41:00;;;;;;;7.85;4.72;;;;;;;15.88;100.00;100454.19;4988911;28;20491;-69
2023/07/27 05:43:26;;;;;;;6.32;4.07;;;;;;;15.88;100.00;100460.28;4979940;28;20062;-69
2023/07/27 05:45:53;;;;;;;6.18;4.38;;;;;;;15.75;100.00;100453.03;4982371;28;20130;-69
2023/07/27 05:48:20;;;;;;;6.85;4.40;;;;;;;15.81;100.00;100449.63;4980422;28;20054;-69
2023/07/27 05:50:46;;;;;;;6.55;4.47;;;;;;;15.80;100.00;100442.72;4989283;28;20062;-69
2023/07/27 05:53:13;;;;;;;7.88;4.65;;;;;;;15.80;100.00;100444.56;4989388;28;20502;-69
2023/07/27 05:55:40;;;;;;;6.22;4.00;;;;;;;15.78;100.00;100443.94;4976214;28;20133;-70
2023/07/27 05:58:06;;;;;;;5.90;3.42;;;;;;;15.80;100.00;100439.28;4984484;28;20050;-69
2023/07/27 06:00:49;;;;;;;5.50;3.40;;;;;;;15.85;100.00;100439.50;4971622;28;20054;-69
2023/07/27 06:03:16;;;;;;;6.13;3.72;;;;;;;15.90;100.00;100434.47;4992123;28;20425;-69
2023/07/27 06:05:44;;;;;;;5.90;3.20;;;;;;;15.88;100.00;100435.69;4991250;28;20499;-69
2023/07/27 06:08:10;;;;;;;6.03;3.00;;;;;;;15.84;100.00;100432.59;4988060;28;20116;-70
2023/07/27 06:10:37;;;;;;;3.67;2.78;;;;;;;15.82;100.00;100435.41;4986877;28;20093;-69
2023/07/27 06:13:04;;;;;;;5.28;3.45;;;;;;;15.76;100.00;100432.72;4974129;28;20046;-68
2023/07/27 06:15:31;;;;;;;5.37;3.03;;;;;;;15.71;100.00;100438.53;4988407;28;20065;-69
2023/07/27 06:17:57;;;;;;;3.88;2.60;;;;;;;15.70;100.00;100428.97;4979818;28;20050;-69
2023/07/27 06:20:24;;;;;;;5.47;2.90;;;;;;;15.74;100.00;100430.25;4987759;28;20057;-69
2023/07/27 06:22:50;;;;;;;5.20;3.10;;;;;;;15.73;100.00;100427.81;4984521;28;20104;-68
2023/07/27 06:25:17;;;;;;;3.90;2.72;;;;;;;15.75;100.00;100429.25;4980473;28;20107;-68
2023/07/27 06:27:44;;;;;;;3.67;2.80;;;;;;;15.76;100.00;100427.44;4964488;28;20049;-69
2023/07/27 06:30:12;;;;;;;4.18;2.97;;;;;;;15.72;100.00;100426.97;4980405;28;20050;-69
2023/07/27 06:32:39;;;;;;;;;;;;;;;15.73;100.00;100417.22;4989169;28;20100;-68
2023/07/27 06:35:06;;;;;;;3.78;2.42;;;;;;;15.70;100.00;100410.47;4981188;28;19928;-69
2023/07/27 06:37:32;;;;;;;3.78;2.67;;;;;;;15.69;100.00;100406.19;4988687;28;20070;-68
2023/07/27 06:39:59;;;;;;;4.47;2.85;;;;;;;15.63;100.00;100409.59;4984284;28;20474;-69
2023/07/27 06:42:26;;;;;;;4.35;2.80;;;;;;;15.70;100.00;100399.91;4975866;28;20046;-69
2023/07/27 06:44:52;;;;;;;4.65;2.63;;;;;;;15.71;100.00;100395.41;4988878;28;20554;-68
2023/07/27 06:47:19;;;;;;;3.55;2.60;;;;;;;15.76;100.00;100393.06;4958898;28;20351;-70
2023/07/27 06:49:45;;;;;;;5.13;2.80;;;;;;;15.80;100.00;100392.47;4987788;28;20137;-69
2023/07/27 06:52:12;;;;;;;4.45;2.50;;;;;;;15.85;100.00;100394.53;4979499;28;20050;-69
2023/07/27 06:54:39;;;;;;;2.85;2.13;;;;;;;15.89;100.00;100398.44;4982137;28;20641;-69
2023/07/27 06:57:09;;;;;;;4.25;2.50;;;;;;;15.87;100.00;100397.00;4980296;28;20504;-68
2023/07/27 06:59:37;;;;;;;2.50;2.10;;;;;;;15.82;100.00;100401.03;4984203;28;20049;-69
2023/07/27 07:02:04;;;;;;;2.95;2.03;;;;;;;15.81;100.00;100395.94;4988197;28;20097;-69
2023/07/27 07:04:31;;;;;;;2.95;2.25;;;;;;;15.82;100.00;100387.81;4980455;28;20113;-68
2023/07/27 07:06:57;;;;;;;3.17;2.17;;;;;;;15.86;100.00;100390.91;4967275;28;20491;-69
2023/07/27 07:09:24;;;;;;;3.72;2.28;;;;;;;15.86;100.00;100393.53;4977914;28;20431;-69
2023/07/27 07:11:51;;;;;;;2.75;2.25;;;;;;;15.82;100.00;100389.66;4984577;28;20054;-68
2023/07/27 07:14:17;;;;;;;2.22;1.80;;;;;;;15.86;100.00;100374.19;4988001;28;20115;-68
2023/07/27 07:16:44;;;;;;;3.53;2.33;;;;;;;15.88;100.00;100380.94;4983894;28;20050;-68
2023/07/27 07:19:11;;;;;;;4.28;2.10;;;;;;;15.88;100.00;100386.22;4985766;28;20058;-68
2023/07/27 07:21:37;;;;;;;2.95;2.13;;;;;;;15.88;100.00;100372.19;4977046;28;20050;-68
2023/07/27 07:24:04;;;;;;;2.30;2.10;;;;;;;15.96;100.00;100374.69;4983639;28;20141;-69
2023/07/27 07:26:30;;;;;;;2.88;2.20;;;;;;;15.94;100.00;100376.72;4981781;28;21141;-69
2023/07/27 07:28:57;;;;;;;1.90;1.70;;;;;;;15.93;100.00;100375.06;4967462;28;20551;-68
2023/07/27 07:31:24;;;;;;;3.17;1.90;;;;;;;16.03;100.00;100375.53;4986907;28;20050;-69
2023/07/27 07:33:50;;;;;;;3.92;2.60;;;;;;;16.02;100.00;100371.28;4978684;28;20050;-69
2023/07/27 07:36:17;;;;;;;3.20;2.58;;;;;;;16.02;100.00;100382.66;4981407;28;20046;-68
2023/07/27 07:38:45;;;;;;;3.53;2.47;;;;;;;16.11;100.00;100369.28;4979832;28;20198;-69
2023/07/27 07:41:12;;;;;;;7.10;2.80;;;;;;;16.14;100.00;100361.78;4987421;28;20054;-69
2023/07/27 07:43:39;;;;;;;5.78;2.58;;;;;;;16.24;100.00;100360.63;4981470;28;20104;-69
2023/07/27 07:46:12;;;;;;;2.97;2.30;;;;;;;16.27;100.00;100369.00;4987023;28;20050;-69
2023/07/27 07:48:39;;;;;;;5.10;2.55;;;;;;;16.32;100.00;100363.91;4983099;28;20054;-69
2023/07/27 07:51:09;;;;;;;3.72;2.92;;;;;;;16.37;100.00;100363.34;4970673;28;20458;-69
2023/07/27 07:53:36;;;;;;;3.58;2.83;;;;;;;16.41;100.00;100354.81;4991127;28;20415;-70
2023/07/27 07:56:03;;;;;;;5.00;2.65;;;;;;;16.48;100.00;100354.84;4984053;28;20120;-69
2023/07/27 07:58:31;;;;;;;3.33;2.58;;;;;;;16.47;100.00;100355.06;4991354;28;20313;-70
2023/07/27 08:00:57;;;;;;;3.00;2.40;;;;;;;16.56;100.00;100341.47;4967003;28;20052;-69
2023/07/27 08:03:24;;;;;;;3.28;2.22;;;;;;;16.54;100.00;100335.53;4990131;28;20160;-69
2023/07/27 08:05:50;;;;;;;3.42;1.98;;;;;;;16.61;100.00;100340.84;4992529;28;20050;-70
2023/07/27 08:08:17;;;;;;;3.22;2.08;;;;;;;16.63;100.00;100340.66;4985456;28;20124;-69
2023/07/27 08:10:43;;;;;;;2.88;2.20;;;;;;;16.68;100.00;100344.34;4992552;28;20435;-69
2023/07/27 08:13:10;;;;;;;3.28;2.15;;;;;;;16.68;100.00;100341.72;4983899;28;20136;-70
2023/07/27 08:15:36;;;;;;;2.50;2.10;;;;;;;16.77;100.00;100323.78;4991514;28;20410;-69
2023/07/27 08:18:03;;;;;;;2.53;1.90;;;;;;;16.79;100.00;100325.22;4977444;28;20418;-70
2023/07/27 08:20:30;;;;;;;3.90;1.90;;;;;;;16.81;100.00;100322.38;4969967;28;20061;-70
2023/07/27 08:22:57;;;;;;;4.57;2.10;;;;;;;16.85;100.00;100323.63;4990809;28;20050;-69
2023/07/27 08:25:23;;;;;;;2.63;1.70;;;;;;;16.88;100.00;100322.44;4983156;28;20104;-70
2023/07/27 08:27:50;;;;;;;2.58;1.98;;;;;;;16.89;100.00;100329.34;4984524;28;20490;-70
2023/07/27 08:30:17;;;;;;;2.83;2.10;;;;;;;16.91;100.00;100327.31;4976401;28;20074;-69
2023/07/27 08:32:46;;;;;;;2.50;2.00;;;;;;;16.97;100.00;100318.56;4986066;28;20150;-69
2023/07/27 08:35:13;;;;;;;2.20;2.00;;;;;;;16.92;100.00;100319.19;4983326;28;20062;-70
2023/07/27 08:37:40;;;;;;;3.35;1.90;;;;;;;17.00;100.00;100316.34;4979039;28;20487;-70
2023/07/27 08:40:08;;;;;;;3.40;2.25;;;;;;;16.93;100.00;100320.81;4987318;28;20042;-71
2023/07/27 08:42:36;;;;;;;3.05;2.20;;;;;;;17.04;100.00;100310.66;4960850;28;20375;-70
2023/07/27 08:45:05;;;;;;;3.97;2.55;;;;;;;17.02;100.00;100305.56;4985679;28;20081;-70
2023/07/27 08:47:33;;;;;;;4.03;2.22;;;;;;;17.03;100.00;100311.66;4961464;28;20444;-69
2023/07/27 08:50:01;;;;;;;3.00;2.55;;;;;;;17.08;100.00;100307.41;4968340;28;20061;-68
2023/07/27 08:52:29;;;;;;;4.07;2.55;;;;;;;17.22;100.00;100307.41;4966646;28;20051;-69
2023/07/27 08:54:56;;;;;;;3.80;2.05;;;;;;;17.16;100.00;100303.75;4990049;28;20100;-69
2023/07/27 08:57:22;;;;;;;3.38;2.10;;;;;;;17.22;100.00;100302.91;4982175;28;20047;-68
2023/07/27 08:59:50;;;;;;;3.42;2.10;;;;;;;17.31;100.00;100306.22;4983703;28;20062;-70
2023/07/27 09:02:17;;;;;;;3.08;2.45;;;;;;;17.35;100.00;100304.78;4990409;28;20481;-70
2023/07/27 09:04:44;;;;;;;3.50;2.63;;;;;;;17.35;100.00;100302.13;4983284;28;20054;-69
2023/07/27 09:07:10;;;;;;;2.63;2.08;;;;;;;17.40;100.00;100310.25;4992979;28;20050;-71
2023/07/27 09:09:37;;;;;;;3.05;2.30;;;;;;;17.42;100.00;100312.72;4984289;28;20077;-69
2023/07/27 09:12:05;;;;;;;2.83;2.30;;;;;;;17.42;100.00;100312.72;4983516;28;20542;-71
2023/07/27 09:14:38;;;;;;;;;;;;;;;17.41;100.00;100316.41;4984121;28;20050;-69
2023/07/27 09:17:05;;;;;;;3.88;2.42;;;;;;;17.45;100.00;100315.78;4970876;28;20040;-69
2023/07/27 09:19:36;;;;;;;4.10;3.03;;;;;;;17.38;100.00;100318.41;4987303;28;20073;-70
2023/07/27 09:22:03;;;;;;;3.67;2.60;;;;;;;17.45;100.00;100309.69;4974806;28;20058;-69
2023/07/27 09:24:34;;;;;;;3.70;2.55;;;;;;;17.41;100.00;100311.09;4985406;28;20695;-69
2023/07/27 09:27:02;;;;;;;3.83;2.80;;;;;;;17.36;100.00;100314.34;4977219;28;20518;-69
2023/07/27 09:29:29;;;;;;;3.72;2.67;;;;;;;17.44;100.00;100314.13;4989829;28;20054;-69
2023/07/27 09:32:00;;;;;;;3.67;2.97;;;;;;;17.44;100.00;100308.84;4984023;28;20118;-69
2023/07/27 09:34:29;;;;;;;7.05;2.60;;;;;;;17.49;100.00;100302.94;4959289;28;20074;-68
2023/07/27 09:36:56;;;;;;;3.83;2.30;;;;;;;17.44;100.00;100308.84;4990029;28;20089;-70
2023/07/27 09:39:27;;;;;;;5.40;2.88;;;;;;;17.47;100.00;100303.16;4978120;28;20077;-69
2023/07/27 09:41:54;;;;;;;4.28;2.72;;;;;;;17.52;100.00;100303.34;4984117;28;20050;-68
2023/07/27 09:44:24;;;;;;;4.53;3.00;;;;;;;17.61;100.00;100303.94;4982595;28;20065;-69
2023/07/27 09:46:50;;;;;;;5.55;3.47;;;;;;;17.67;100.00;100297.81;4970962;28;20054;-69
2023/07/27 09:49:18;;;;;;;5.00;3.70;;;;;;;17.69;100.00;100297.63;4976438;28;20125;-68
2023/07/27 09:51:46;;;;;;;5.45;3.85;;;;;;;17.78;100.00;100297.19;4980746;28;20083;-68
2023/07/27 09:54:13;;;;;;;5.15;4.53;;;;;;;17.67;100.00;100297.81;4981406;28;20772;-69
2023/07/27 09:56:40;;;;;;;5.65;4.40;;;;;;;17.69;100.00;100302.94;4964162;28;20324;-70
2023/07/27 09:59:07;;;;;;;5.57;4.88;;;;;;;17.72;100.00;100298.03;4988806;28;20058;-69
2023/07/27 10:01:34;;;;;;;5.35;4.63;;;;;;;17.67;100.00;100302.31;4981564;28;20747;-70
2023/07/27 10:04:01;;;;;;;5.38;4.35;;;;;;;17.68;100.00;100303.94;4991637;28;20054;-70
2023/07/27 10:06:28;;;;;;;5.13;4.28;;;;;;;17.77;100.00;100305.34;4976996;28;20053;-71
2023/07/27 10:08:56;;;;;;;4.85;4.35;;;;;;;17.75;100.00;100299.44;4965325;28;20110;-70
2023/07/27 10:11:48;;;;;;;6.68;3.67;;;;;;;17.73;100.00;100307.59;4988274;28;20149;-71
2023/07/27 10:14:18;;;;;;;4.47;4.07;;;;;;;17.86;100.00;100298.03;4981200;28;20058;-71
2023/07/27 10:16:58;;;;;;;3.92;3.50;;;;;;;17.95;100.00;100292.31;4988145;28;20077;-70
2023/07/27 10:19:37;;;;;;;4.72;3.97;;;;;;;17.95;100.00;100292.31;4981038;28;20058;-71
2023/07/27 10:22:08;;;;;;;5.05;4.20;;;;;;;17.96;100.00;100293.13;4974182;28;20316;-72
2023/07/27 10:24:58;;;;;;;6.68;4.80;;;;;;;18.04;100.00;100292.09;4980250;28;20427;-71
2023/07/27 10:27:25;;;;;;;5.95;4.70;;;;;;;17.98;100.00;100310.44;4987905;28;20655;-71
2023/07/27 10:30:10;;;;;;;5.68;3.97;;;;;;;17.97;100.00;100308.84;4980348;28;20058;-72
2023/07/27 10:32:37;;;;;;;4.47;4.07;;;;;;;18.03;100.00;100312.47;4988488;28;20082;-71
2023/07/27 10:35:07;;;;;;;6.97;4.35;;;;;;;18.02;100.00;100302.91;4978897;28;20043;-72
2023/07/27 10:37:53;;;;;;;7.03;4.35;;;;;;;18.00;100.00;100309.44;4982997;28;20069;-72
2023/07/27 10:40:25;;;;;;;6.00;4.88;;;;;;;18.07;100.00;100305.75;4987324;28;20048;-71
2023/07/27 10:42:56;;;;;;;7.35;4.75;;;;;;;18.08;100.00;100304.72;4963462;28;20058;-71
2023/07/27 10:45:24;;;;;;;5.88;5.00;;;;;;;18.04;100.00;100300.03;4970697;28;20117;-72
2023/07/27 10:47:55;;;;;;;5.53;4.97;;;;;;;18.06;100.00;100296.16;4960628;28;20575;-72
2023/07/27 10:50:23;;;;;;;5.60;4.63;;;;;;;18.03;100.00;100296.56;4982714;28;20050;-72
2023/07/27 10:52:53;;;;;;;6.10;4.90;;;;;;;18.05;100.00;100294.50;4977744;28;20467;-72
2023/07/27 10:55:20;;;;;;;5.43;4.40;;;;;;;18.06;100.00;100300.66;4987479;28;20126;-72
2023/07/27 10:57:48;;;;;;;5.50;4.18;;;;;;;18.03;100.00;100293.91;4987548;28;20108;-72
2023/07/27 11:00:15;;;;;;;8.67;4.50;;;;;;;18.03;100.00;100293.09;4980830;28;20426;-71
2023/07/27 11:02:44;;;;;;;8.40;4.45;;;;;;;18.04;100.00;100286.78;4983747;28;20470;-71
2023/07/27 11:05:12;;;;;;;7.25;4.90;;;;;;;18.09;100.00;100286.94;4975323;28;20053;-73
2023/07/27 11:07:42;;;;;;;5.15;4.10;;;;;;;18.15;100.00;100286.94;4987639;28;20050;-71
2023/07/27 11:10:11;;;;;;;6.35;4.15;;;;;;;18.24;100.00;100289.34;4981403;28;20081;-71
2023/07/27 11:13:04;;;;;;;;;;;;;;;18.28;100.00;100290.56;4966997;28;20050;-71
2023/07/27 11:15:30;;;;;;;6.78;4.00;;;;;;;18.28;100.00;100283.41;4974964;28;20136;-71
2023/07/27 11:17:59;;;;;;;4.88;4.20;;;;;;;18.29;100.00;100287.72;4989287;28;20046;-71
2023/07/27 11:20:30;;;;;;;6.15;4.30;;;;;;;18.34;100.00;100284.41;4987469;28;20050;-71
2023/07/27 11:22:58;;;;;;;4.65;4.07;;;;;;;18.37;100.00;100281.34;4977183;28;20050;-71